createdAt,value
2022-12-04T00:00:14.213Z,101060.75
2022-12-04T00:02:41.688Z,101061.84
2022-12-04T00:05:10.001Z,101054.66
2022-12-04T00:07:37.347Z,101065.94
2022-12-04T00:10:05.032Z,101065.44
2022-12-04T00:12:32.087Z,101057.91
2022-12-04T00:17:49.250Z,101073.66
2022-12-04T00:20:16.190Z,101070.66
2022-12-04T00:22:43.022Z,101071.84
2022-12-04T00:25:10.048Z,101066.09
2022-12-04T00:27:36.912Z,101066.78
2022-12-04T00:30:04.598Z,101061.50
2022-12-04T00:32:31.491Z,101061.63
2022-12-04T00:34:58.508Z,101065.84
2022-12-04T00:37:25.346Z,101060.25
2022-12-04T00:39:52.492Z,101052.63
2022-12-04T00:42:19.506Z,101053.63
2022-12-04T00:44:46.475Z,101060.97
2022-12-04T00:47:13.302Z,101052.22
2022-12-04T00:49:40.115Z,101055.78
2022-12-04T00:52:06.946Z,101059.00
2022-12-04T00:54:34.027Z,101051.22
2022-12-04T00:57:00.823Z,101058.47
2022-12-04T00:59:27.684Z,101051.03
2022-12-04T01:01:54.540Z,101049.75
2022-12-04T01:04:21.430Z,101052.88
2022-12-04T01:06:48.471Z,101048.88
2022-12-04T01:09:15.320Z,101050.16
2022-12-04T01:11:42.233Z,101042.47
2022-12-04T01:14:09.106Z,101046.88
2022-12-04T01:16:38.543Z,101044.75
2022-12-04T01:19:08.821Z,101051.59
2022-12-04T01:21:37.512Z,101049.25
2022-12-04T01:24:04.994Z,101052.38
2022-12-04T01:26:31.865Z,101050.59
2022-12-04T01:28:59.198Z,101045.94
2022-12-04T01:31:26.211Z,101057.13
2022-12-04T01:33:53.457Z,101047.47
2022-12-04T01:36:26.166Z,101055.28
2022-12-04T01:38:53.513Z,101052.72
2022-12-04T01:41:23.640Z,101056.25
2022-12-04T01:44:14.517Z,101059.25
2022-12-04T01:46:43.198Z,101059.25
2022-12-04T01:49:15.685Z,101062.53
2022-12-04T01:51:51.845Z,101056.44
2022-12-04T01:54:28.748Z,101058.84
2022-12-04T01:57:06.140Z,101061.47
2022-12-04T01:59:38.851Z,101064.06
2022-12-04T02:02:11.489Z,101051.38
2022-12-04T02:04:40.868Z,101054.16
2022-12-04T02:07:07.834Z,101046.25
2022-12-04T02:09:37.211Z,101046.25
2022-12-04T02:12:16.722Z,101048.47
2022-12-04T02:14:46.474Z,101054.47
2022-12-04T02:17:32.638Z,101053.22
2022-12-04T02:20:20.907Z,101048.72
2022-12-04T02:23:09.457Z,101052.38
2022-12-04T02:25:55.149Z,101050.22
2022-12-04T02:28:24.941Z,101053.59
2022-12-04T02:30:57.721Z,101055.16
2022-12-04T02:33:33.557Z,101056.63
2022-12-04T02:36:08.722Z,101055.78
2022-12-04T02:38:40.698Z,101060.88
2022-12-04T02:41:31.833Z,101055.00
2022-12-04T02:44:05.039Z,101056.97
2022-12-04T02:46:38.620Z,101051.03
2022-12-04T02:49:11.797Z,101057.72
2022-12-04T02:51:41.456Z,101054.13
2022-12-04T02:54:18.332Z,101054.13
2022-12-04T02:56:47.728Z,101059.13
2022-12-04T02:59:20.456Z,101059.56
2022-12-04T03:01:51.722Z,101054.91
2022-12-04T03:04:22.388Z,101063.94
2022-12-04T03:06:55.204Z,101063.25
2022-12-04T03:09:24.449Z,101052.38
2022-12-04T03:12:01.391Z,101062.06
2022-12-04T03:14:34.562Z,101059.72
2022-12-04T03:17:09.762Z,101050.84
2022-12-04T03:19:45.744Z,101057.13
2022-12-04T03:22:16.651Z,101053.56
2022-12-04T03:24:52.230Z,101050.97
2022-12-04T03:27:38.454Z,101050.47
2022-12-04T03:30:19.046Z,101056.00
2022-12-04T03:32:55.576Z,101061.47
2022-12-04T03:35:42.677Z,101059.75
2022-12-04T03:38:35.765Z,101065.81
2022-12-04T03:41:15.237Z,101064.50
2022-12-04T03:43:45.024Z,101068.22
2022-12-04T03:46:16.712Z,101069.00
2022-12-04T03:48:52.679Z,101067.03
2022-12-04T03:51:31.898Z,101068.84
2022-12-04T03:54:24.221Z,101073.31
2022-12-04T03:56:56.382Z,101078.72
2022-12-04T03:59:55.862Z,101073.38
2022-12-04T04:02:28.053Z,101069.72
2022-12-04T04:04:59.451Z,101067.03
2022-12-04T04:07:35.907Z,101071.47
2022-12-04T04:10:11.409Z,101066.22
2022-12-04T04:12:44.191Z,101070.06
2022-12-04T04:15:35.852Z,101068.91
2022-12-04T04:18:21.457Z,101068.91
2022-12-04T04:21:14.448Z,101054.06
2022-12-04T04:24:07.675Z,101060.66
2022-12-04T04:26:42.200Z,101058.25
2022-12-04T04:29:09.989Z,101062.75
2022-12-04T04:32:08.836Z,101058.63
2022-12-04T04:34:46.825Z,101058.41
2022-12-04T04:37:51.039Z,101060.69
2022-12-04T04:40:42.190Z,101072.06
2022-12-04T04:43:40.012Z,101066.63
2022-12-04T04:46:21.742Z,101078.22
2022-12-04T04:48:52.988Z,101077.78
2022-12-04T04:51:20.791Z,101074.41
2022-12-04T04:53:59.445Z,101072.22
2022-12-04T04:56:26.808Z,101077.09
2022-12-04T04:58:53.748Z,101070.06
2022-12-04T05:01:24.416Z,101069.50
2022-12-04T05:03:51.426Z,101079.16
2022-12-04T05:06:18.322Z,101082.53
2022-12-04T05:08:45.556Z,101079.31
2022-12-04T05:11:14.560Z,101083.38
2022-12-04T05:13:41.882Z,101095.84
2022-12-04T05:16:12.626Z,101101.13
2022-12-04T05:18:40.362Z,101087.88
2022-12-04T05:21:16.878Z,101084.75
2022-12-04T05:23:44.188Z,101084.50
2022-12-04T05:26:11.268Z,101081.84
2022-12-04T05:28:39.692Z,101076.84
2022-12-04T05:31:06.803Z,101080.56
2022-12-04T05:33:33.671Z,101085.09
2022-12-04T05:36:03.912Z,101093.13
2022-12-04T05:38:31.452Z,101088.66
2022-12-04T05:41:02.854Z,101091.97
2022-12-04T05:43:30.054Z,101096.00
2022-12-04T05:46:02.330Z,101099.69
2022-12-04T05:48:29.092Z,101100.66
2022-12-04T05:50:56.091Z,101104.38
2022-12-04T05:53:23.151Z,101104.38
2022-12-04T05:56:01.340Z,101101.09
2022-12-04T05:58:28.623Z,101094.81
2022-12-04T06:00:55.748Z,101096.75
2022-12-04T06:03:23.487Z,101099.22
2022-12-04T06:05:50.434Z,101101.22
2022-12-04T06:08:17.395Z,101099.53
2022-12-04T06:10:44.343Z,101108.16
2022-12-04T06:13:11.621Z,101105.41
2022-12-04T06:15:40.100Z,101105.94
2022-12-04T06:18:07.493Z,101113.50
2022-12-04T06:20:34.796Z,101118.03
2022-12-04T06:23:01.955Z,101120.59
2022-12-04T06:25:29.640Z,101124.06
2022-12-04T06:27:56.528Z,101119.38
2022-12-04T06:30:23.555Z,101114.50
2022-12-04T06:32:50.451Z,101132.22
2022-12-04T06:35:17.409Z,101132.34
2022-12-04T06:37:44.300Z,101149.91
2022-12-04T06:40:11.564Z,101141.38
2022-12-04T06:42:38.719Z,101147.41
2022-12-04T06:45:06.651Z,101154.31
2022-12-04T06:47:35.737Z,101150.97
2022-12-04T06:50:03.576Z,101159.31
2022-12-04T06:52:34.986Z,101158.31
2022-12-04T06:55:01.907Z,101136.84
2022-12-04T06:57:28.843Z,101151.38
2022-12-04T06:59:55.803Z,101148.63
2022-12-04T07:02:23.114Z,101151.19
2022-12-04T07:04:50.046Z,101151.16
2022-12-04T07:07:16.936Z,101141.13
2022-12-04T07:09:44.399Z,101147.53
2022-12-04T07:12:11.301Z,101139.69
2022-12-04T07:14:38.316Z,101136.56
2022-12-04T07:17:05.188Z,101143.41
2022-12-04T07:19:32.149Z,101137.38
2022-12-04T07:21:59.029Z,101135.59
2022-12-04T07:24:25.825Z,101143.94
2022-12-04T07:26:52.786Z,101144.63
2022-12-04T07:31:46.582Z,101147.84
2022-12-04T07:34:13.584Z,101147.25
2022-12-04T07:36:41.002Z,101147.06
2022-12-04T07:39:07.860Z,101140.09
2022-12-04T07:41:35.389Z,101146.22
2022-12-04T07:44:06.699Z,101145.28
2022-12-04T07:46:33.593Z,101150.19
2022-12-04T07:49:00.452Z,101154.66
2022-12-04T07:51:29.535Z,101156.38
2022-12-04T07:54:02.847Z,101157.97
2022-12-04T07:56:30.927Z,101164.53
2022-12-04T07:58:57.794Z,101166.47
2022-12-04T08:01:25.080Z,101164.00
2022-12-04T08:03:55.369Z,101176.78
2022-12-04T08:06:24.492Z,101172.50
2022-12-04T08:08:52.424Z,101174.03
2022-12-04T08:11:22.538Z,101168.72
2022-12-04T08:13:57.407Z,101165.88
2022-12-04T08:16:25.365Z,101170.03
2022-12-04T08:18:53.721Z,101177.91
2022-12-04T08:21:23.675Z,101175.06
2022-12-04T08:23:52.666Z,101180.16
2022-12-04T08:26:21.800Z,101167.78
2022-12-04T08:28:49.315Z,101163.19
2022-12-04T08:31:21.871Z,101153.59
2022-12-04T08:33:51.601Z,101150.75
2022-12-04T08:36:20.830Z,101152.50
2022-12-04T08:38:48.748Z,101149.31
2022-12-04T08:41:18.477Z,101150.50
2022-12-04T08:43:45.376Z,101154.31
2022-12-04T08:46:15.199Z,101153.66
2022-12-04T08:48:42.831Z,101153.66
2022-12-04T08:51:18.273Z,101148.59
2022-12-04T08:53:45.996Z,101145.41
2022-12-04T08:56:13.318Z,101152.06
2022-12-04T08:58:40.707Z,101156.97
2022-12-04T09:01:13.006Z,101144.97
2022-12-04T09:03:40.595Z,101150.94
2022-12-04T09:06:09.532Z,101141.81
2022-12-04T09:08:37.050Z,101144.25
2022-12-04T09:11:16.476Z,101141.34
2022-12-04T09:13:44.718Z,101136.34
2022-12-04T09:16:18.208Z,101143.97
2022-12-04T09:18:46.471Z,101141.69
2022-12-04T09:21:15.793Z,101130.38
2022-12-04T09:23:43.237Z,101129.72
2022-12-04T09:26:23.010Z,101125.84
2022-12-04T09:28:50.918Z,101130.19
2022-12-04T09:31:19.034Z,101122.28
2022-12-04T09:33:46.105Z,101129.66
2022-12-04T09:36:16.379Z,101127.97
2022-12-04T09:38:49.040Z,101120.19
2022-12-04T09:41:18.896Z,101114.81
2022-12-04T09:43:57.969Z,101114.31
2022-12-04T09:46:28.694Z,101110.41
2022-12-04T09:48:58.683Z,101107.72
2022-12-04T09:51:26.415Z,101102.66
2022-12-04T09:54:00.297Z,101101.06
2022-12-04T09:56:30.674Z,101092.84
2022-12-04T09:59:07.593Z,101083.75
2022-12-04T10:01:46.334Z,101086.16
2022-12-04T10:04:13.913Z,101090.38
2022-12-04T10:06:50.089Z,101093.25
2022-12-04T10:09:21.121Z,101084.69
2022-12-04T10:12:08.037Z,101080.34
2022-12-04T10:15:02.355Z,101078.28
2022-12-04T10:17:40.211Z,101067.41
2022-12-04T10:20:29.981Z,101069.94
2022-12-04T10:23:15.647Z,101058.28
2022-12-04T10:25:43.915Z,101063.97
2022-12-04T10:28:23.553Z,101054.47
2022-12-04T10:30:53.260Z,101052.03
2022-12-04T10:33:33.358Z,101053.75
2022-12-04T10:36:02.819Z,101051.31
2022-12-04T10:38:44.145Z,101053.53
2022-12-04T10:41:29.706Z,101054.63
2022-12-04T10:43:57.327Z,101054.09
2022-12-04T10:46:30.252Z,101057.16
2022-12-04T10:49:06.964Z,101050.50
2022-12-04T10:51:42.764Z,101047.13
2022-12-04T10:54:34.095Z,101045.91
2022-12-04T10:57:07.500Z,101053.94
2022-12-04T10:59:35.507Z,101044.91
2022-12-04T11:02:11.848Z,101033.44
2022-12-04T11:04:42.060Z,101032.38
2022-12-04T11:07:20.891Z,101036.03
2022-12-04T11:10:01.618Z,101029.81
2022-12-04T11:12:29.352Z,101024.78
2022-12-04T11:15:01.593Z,101022.31
2022-12-04T11:17:29.300Z,101013.78
2022-12-04T11:20:09.578Z,101017.06
2022-12-04T11:22:56.991Z,101004.44
2022-12-04T11:25:28.349Z,101007.28
2022-12-04T11:28:00.065Z,101016.25
2022-12-04T11:30:34.646Z,101017.06
2022-12-04T11:33:04.851Z,101010.41
2022-12-04T11:35:33.038Z,101010.13
2022-12-04T11:38:09.416Z,101009.28
2022-12-04T11:40:37.509Z,100999.59
2022-12-04T11:43:06.632Z,101002.09
2022-12-04T11:45:34.056Z,100995.03
2022-12-04T11:48:05.285Z,101003.03
2022-12-04T11:51:01.908Z,100989.47
2022-12-04T11:53:47.490Z,100985.84
2022-12-04T11:56:20.888Z,100990.84
2022-12-04T11:59:25.826Z,100982.63
2022-12-04T12:02:14.501Z,100987.22
2022-12-04T12:05:00.963Z,100991.16
2022-12-04T12:07:39.800Z,100987.13
2022-12-04T12:10:22.617Z,100984.84
2022-12-04T12:13:04.699Z,100980.84
2022-12-04T12:16:08.794Z,100980.06
2022-12-04T12:19:00.881Z,100982.28
2022-12-04T12:22:08.003Z,100986.63
2022-12-04T12:25:02.404Z,100982.16
2022-12-04T12:28:02.712Z,100975.22
2022-12-04T12:30:45.055Z,100975.00
2022-12-04T12:33:26.692Z,100977.66
2022-12-04T12:36:11.955Z,100969.94
2022-12-04T12:38:47.088Z,100972.50
2022-12-04T12:41:20.365Z,100977.56
2022-12-04T12:43:56.991Z,100971.66
2022-12-04T12:46:30.780Z,100964.81
2022-12-04T12:49:03.833Z,100967.94
2022-12-04T12:52:00.532Z,100962.69
2022-12-04T12:54:41.249Z,100961.53
2022-12-04T12:57:36.665Z,100959.63
2022-12-04T13:00:06.568Z,100967.38
2022-12-04T13:02:41.507Z,100965.75
2022-12-04T13:05:13.387Z,100965.53
2022-12-04T13:08:11.551Z,100965.44
2022-12-04T13:10:46.104Z,100961.13
2022-12-04T13:13:32.758Z,100963.47
2022-12-04T13:16:05.958Z,100971.22
2022-12-04T13:18:46.225Z,100962.41
2022-12-04T13:21:26.645Z,100964.91
2022-12-04T13:24:16.225Z,100962.13
2022-12-04T13:27:26.694Z,100964.06
2022-12-04T13:30:29.729Z,100966.47
2022-12-04T13:33:08.454Z,100969.66
2022-12-04T13:35:54.768Z,100976.59
2022-12-04T13:38:25.524Z,100972.84
2022-12-04T13:40:58.983Z,100975.28
2022-12-04T13:43:35.673Z,100978.06
2022-12-04T13:46:21.679Z,100979.00
2022-12-04T13:48:49.741Z,100986.00
2022-12-04T13:51:36.191Z,100976.38
2022-12-04T13:54:13.218Z,100960.88
2022-12-04T13:56:46.026Z,100971.63
2022-12-04T13:59:30.623Z,100969.22
2022-12-04T14:02:07.999Z,100970.22
2022-12-04T14:04:52.416Z,100975.56
2022-12-04T14:07:35.144Z,100973.00
2022-12-04T14:10:06.661Z,100964.38
2022-12-04T14:12:39.936Z,100968.63
2022-12-04T14:15:21.283Z,100966.09
2022-12-04T14:18:07.294Z,100972.16
2022-12-04T14:20:36.336Z,100972.63
2022-12-04T14:23:27.577Z,100971.00
2022-12-04T14:25:58.924Z,100971.75
2022-12-04T14:28:33.924Z,100978.47
2022-12-04T14:31:32.585Z,100979.66
2022-12-04T14:34:27.208Z,100977.84
2022-12-04T14:36:56.785Z,100982.38
2022-12-04T14:39:41.801Z,100975.44
2022-12-04T14:42:18.230Z,100982.38
2022-12-04T14:44:46.678Z,100978.91
2022-12-04T14:47:38.510Z,100978.91
2022-12-04T14:50:47.428Z,100988.50
2022-12-04T14:53:42.097Z,100992.75
2022-12-04T14:56:21.109Z,100983.03
2022-12-04T14:58:48.191Z,100991.84
2022-12-04T15:01:18.098Z,100993.69
2022-12-04T15:03:48.259Z,100992.56
2022-12-04T15:06:27.396Z,100990.13
2022-12-04T15:09:20.928Z,100998.19
2022-12-04T15:12:15.703Z,101001.53
2022-12-04T15:14:44.034Z,100999.13
2022-12-04T15:17:13.012Z,101005.34
2022-12-04T15:19:40.360Z,101001.91
2022-12-04T15:22:21.136Z,101005.34
2022-12-04T15:24:48.202Z,101008.41
2022-12-04T15:27:17.411Z,101007.59
2022-12-04T15:29:48.476Z,101002.47
2022-12-04T15:32:19.789Z,100997.97
2022-12-04T15:34:51.922Z,100994.22
2022-12-04T15:37:30.836Z,100994.75
2022-12-04T15:39:59.350Z,100990.47
2022-12-04T15:42:30.873Z,100988.75
2022-12-04T15:45:01.720Z,100997.44
2022-12-04T15:47:37.377Z,100998.44
2022-12-04T15:50:20.740Z,101004.63
2022-12-04T15:52:51.200Z,101004.19
2022-12-04T15:55:19.489Z,100997.34
2022-12-04T15:57:54.256Z,100996.28
2022-12-04T16:00:34.224Z,100996.69
2022-12-04T16:03:01.311Z,100990.47
2022-12-04T16:05:35.049Z,101002.06
2022-12-04T16:08:24.099Z,100995.63
2022-12-04T16:11:03.962Z,100999.72
2022-12-04T16:13:34.391Z,100998.00
2022-12-04T16:16:05.598Z,101003.47
2022-12-04T16:18:32.807Z,100997.84
2022-12-04T16:21:00.450Z,100996.47
2022-12-04T16:23:27.487Z,100998.50
2022-12-04T16:25:54.534Z,100999.28
2022-12-04T16:28:21.632Z,101003.03
2022-12-04T16:30:51.648Z,101003.25
2022-12-04T16:33:18.975Z,101008.81
2022-12-04T16:35:45.861Z,101004.13
2022-12-04T16:38:17.171Z,101011.78
2022-12-04T16:40:46.011Z,101007.22
2022-12-04T16:43:14.945Z,101000.41
2022-12-04T16:46:02.109Z,101003.94
2022-12-04T16:48:32.165Z,101003.81
2022-12-04T16:50:58.988Z,100999.59
2022-12-04T16:53:25.899Z,100998.44
2022-12-04T16:55:53.282Z,100999.22
2022-12-04T16:58:20.703Z,101002.78
2022-12-04T17:00:54.990Z,100999.63
2022-12-04T17:03:28.740Z,101014.22
2022-12-04T17:05:56.504Z,101016.00
2022-12-04T17:08:23.841Z,101013.03
2022-12-04T17:10:51.203Z,101007.75
2022-12-04T17:13:19.921Z,101010.03
2022-12-04T17:15:46.970Z,101014.16
2022-12-04T17:18:19.284Z,101015.31
2022-12-04T17:20:47.879Z,101023.66
2022-12-04T17:23:14.842Z,101027.97
2022-12-04T17:25:42.100Z,101025.53
2022-12-04T17:28:09.114Z,101026.72
2022-12-04T17:30:36.608Z,101021.19
2022-12-04T17:33:04.934Z,101030.59
2022-12-04T17:35:32.174Z,101020.25
2022-12-04T17:38:05.451Z,101025.16
2022-12-04T17:40:32.852Z,101020.94
2022-12-04T17:43:00.065Z,101022.78
2022-12-04T17:45:27.039Z,101024.19
2022-12-04T17:47:53.869Z,101029.19
2022-12-04T17:50:20.856Z,101028.31
2022-12-04T17:52:48.412Z,101025.53
2022-12-04T17:55:15.329Z,101033.25
2022-12-04T17:57:42.177Z,101024.78
2022-12-04T18:00:10.172Z,101031.72
2022-12-04T18:02:41.641Z,101029.09
2022-12-04T18:05:09.906Z,101026.34
2022-12-04T18:07:36.885Z,101037.28
2022-12-04T18:10:04.061Z,101037.94
2022-12-04T18:12:31.006Z,101038.75
2022-12-04T18:14:57.927Z,101046.75
2022-12-04T18:17:24.880Z,101033.13
2022-12-04T18:19:51.691Z,101037.53
2022-12-04T18:22:18.572Z,101038.88
2022-12-04T18:24:45.456Z,101034.53
2022-12-04T18:27:12.306Z,101036.16
2022-12-04T18:29:39.182Z,101036.53
2022-12-04T18:32:06.969Z,101045.97
2022-12-04T18:34:33.988Z,101048.53
2022-12-04T18:37:00.974Z,101049.50
2022-12-04T18:39:27.976Z,101043.34
2022-12-04T18:41:58.747Z,101045.13
2022-12-04T18:44:26.205Z,101041.50
2022-12-04T18:46:53.697Z,101027.69
2022-12-04T18:49:20.671Z,101046.34
2022-12-04T18:51:50.001Z,101047.88
2022-12-04T18:54:20.053Z,101037.09
2022-12-04T18:56:47.025Z,101029.19
2022-12-04T18:59:20.456Z,101026.81
2022-12-04T19:01:49.934Z,101032.88
2022-12-04T19:04:18.536Z,101031.09
2022-12-04T19:06:49.366Z,101029.72
2022-12-04T19:09:19.081Z,101032.53
2022-12-04T19:11:46.694Z,101031.34
2022-12-04T19:14:22.740Z,101034.72
2022-12-04T19:16:50.650Z,101032.09
2022-12-04T19:19:18.117Z,101032.69
2022-12-04T19:21:45.011Z,101036.31
2022-12-04T19:24:12.511Z,101039.31
2022-12-04T19:26:39.547Z,101032.34
2022-12-04T19:29:07.576Z,101034.97
2022-12-04T19:31:37.771Z,101037.59
2022-12-04T19:34:06.676Z,101040.16
2022-12-04T19:36:35.419Z,101036.50
2022-12-04T19:39:04.347Z,101034.81
2022-12-04T19:41:34.321Z,101027.09
2022-12-04T19:44:14.654Z,101026.53
2022-12-04T19:46:49.531Z,101031.53
2022-12-04T19:49:16.431Z,101028.72
2022-12-04T19:51:43.818Z,101030.59
2022-12-04T19:54:13.132Z,101027.88
2022-12-04T19:56:40.360Z,101029.38
2022-12-04T19:59:08.349Z,101026.09
2022-12-04T20:01:35.686Z,101027.94
2022-12-04T20:04:06.636Z,101035.16
2022-12-04T20:06:40.068Z,101029.75
2022-12-04T20:09:10.815Z,101025.59
2022-12-04T20:11:38.001Z,101024.78
2022-12-04T20:14:05.812Z,101028.34
2022-12-04T20:16:34.605Z,101023.53
2022-12-04T20:19:03.031Z,101024.63
2022-12-04T20:21:31.004Z,101025.13
2022-12-04T20:24:01.223Z,101025.69
2022-12-04T20:26:32.058Z,101021.09
2022-12-04T20:29:00.758Z,101023.19
2022-12-04T20:31:34.726Z,101026.25
2022-12-04T20:34:05.219Z,101034.91
2022-12-04T20:36:37.059Z,101036.59
2022-12-04T20:39:05.246Z,101034.81
2022-12-04T20:41:33.339Z,101036.50
2022-12-04T20:44:02.632Z,101027.78
2022-12-04T20:46:32.437Z,101023.53
2022-12-04T20:49:01.326Z,101009.34
2022-12-04T20:51:34.164Z,101009.34
2022-12-04T20:54:01.810Z,101015.50
2022-12-04T20:56:32.052Z,101009.19
2022-12-04T20:59:01.501Z,101013.88
2022-12-04T21:01:29.160Z,100996.41
2022-12-04T21:03:58.766Z,101004.69
2022-12-04T21:06:34.869Z,101008.50
2022-12-04T21:09:08.079Z,101010.97
2022-12-04T21:11:47.240Z,101008.97
2022-12-04T21:14:39.213Z,101005.34
2022-12-04T21:17:09.383Z,100993.19
2022-12-04T21:19:36.594Z,100994.03
2022-12-04T21:22:03.852Z,100990.31
2022-12-04T21:24:36.354Z,100990.31
2022-12-04T21:27:03.267Z,100980.22
2022-12-04T21:29:30.235Z,100977.91
2022-12-04T21:31:57.079Z,100978.25
2022-12-04T21:34:24.003Z,100968.84
2022-12-04T21:36:50.865Z,100973.50
2022-12-04T21:39:17.800Z,100973.00
2022-12-04T21:42:02.988Z,100961.09
2022-12-04T21:44:29.960Z,100961.56
2022-12-04T21:46:56.946Z,100957.03
2022-12-04T21:49:25.093Z,100964.31
2022-12-04T21:51:59.619Z,100969.06
2022-12-04T21:54:29.945Z,100973.22
2022-12-04T21:56:57.395Z,100968.53
2022-12-04T21:59:25.507Z,100964.25
2022-12-04T22:01:53.316Z,100965.53
2022-12-04T22:04:20.524Z,100957.41
2022-12-04T22:06:47.550Z,100963.16
2022-12-04T22:09:14.649Z,100968.34
2022-12-04T22:11:42.267Z,100971.81
2022-12-04T22:14:10.267Z,100978.47
2022-12-04T22:16:41.825Z,100969.38
2022-12-04T22:19:10.634Z,100974.72
2022-12-04T22:21:37.781Z,100972.94
2022-12-04T22:24:05.334Z,100966.16
2022-12-04T22:26:32.376Z,100966.34
2022-12-04T22:28:59.245Z,100964.56
2022-12-04T22:31:28.709Z,100961.34
2022-12-04T22:33:57.846Z,100952.53
2022-12-04T22:36:27.640Z,100954.22
2022-12-04T22:39:11.038Z,100950.50
2022-12-04T22:41:38.708Z,100944.19
2022-12-04T22:44:06.151Z,100940.81
2022-12-04T22:46:33.303Z,100951.88
2022-12-04T22:49:00.215Z,100936.75
2022-12-04T22:51:27.968Z,100946.63
2022-12-04T22:53:57.268Z,100947.84
2022-12-04T22:56:28.530Z,100945.97
2022-12-04T22:58:56.085Z,100941.81
2022-12-04T23:01:25.435Z,100943.25
2022-12-04T23:03:53.321Z,100942.28
2022-12-04T23:06:21.940Z,100939.03
2022-12-04T23:08:48.947Z,100929.41
2022-12-04T23:11:18.848Z,100929.16
2022-12-04T23:13:51.701Z,100938.00
2022-12-04T23:16:20.453Z,100933.94
2022-12-04T23:18:48.567Z,100938.19
2022-12-04T23:21:16.671Z,100936.50
2022-12-04T23:23:44.853Z,100934.13
2022-12-04T23:26:17.760Z,100931.78
2022-12-04T23:28:44.821Z,100931.06
2022-12-04T23:31:11.832Z,100938.03
2022-12-04T23:33:40.139Z,100937.31
2022-12-04T23:36:09.061Z,100939.88
2022-12-04T23:38:37.473Z,100941.47
2022-12-04T23:41:11.229Z,100944.75
2022-12-04T23:43:39.464Z,100947.38
2022-12-04T23:46:10.962Z,100946.28
2022-12-04T23:48:40.072Z,100953.06
2022-12-04T23:51:07.743Z,100946.03
2022-12-04T23:53:35.091Z,100936.75
2022-12-04T23:56:10.012Z,100941.28
2022-12-04T23:58:36.936Z,100943.13
